メインページ
METAR-TAF:

METAR-TAF

空港 :

バーレーン国際空港

バーレーン, バーレーン

緯度: 26-16N, 経度: 050-39E, 海抜: 2m

現時点の気象観測

当レポートは26分前の23:00(UTC)に作成
北西の風 7kt
気温 33°C
湿度 75%
気圧 1006 hPa
視程: 8000m
晴天

METAR: OBBI 242300Z 31007KT 8000 SKC 33/28 Q1006 NOSIG

時間: 02:26 (23:26 UTC)

予報

当レポートは6時間26分前の17:00(UTC)に作成
予報は24日の 18時(UTC)から 26日の 00時(UTC)まで有効
変向風 5kt
視程: 7000m
確率 30% :
24日の 23時(UTC)から 25日の 05時(UTC)まで一時的に
視程: 5000m
煙霧
25日の 05時(UTC)から 25日の 07時(UTC)まで徐々に
北/北西の風 10kt

TAF: OBBI 241700Z 2418/2600 VRB05KT 7000 NSC PROB30 TEMPO 2423/2505 5000 HZ BECMG 2505/2507 34010KT

4,000以上の空港の気象観測と天気予報(METAR報とTAF報)

利用可能な観測所は地図上に黄色い丸と赤い丸で示す。

丸の上にカーソルを重ねると観測所名を参照できる。

次にクリックすると気象観測と天気予報を参照できる。

マップの切り替え:黒色「×」印の緑ボタンをクリックして拡大、「-」印の緑ボタンをクリックして縮小、緑色の三角印をクリックして隣りの地図に切り替え


METAR-TAF: